Time;durP1;ratioP1;P1;durP2;ratioP2;P2;SDS_P1;SDS_P2;PMS_P1;PMS_P2;Temp;Humidity;BMP_temperature;BMP_pressure;BME280_temperature;BME280_humidity;BME280_pressure;Samples;Min_cycle;Max_cycle;Signal;HPM_P1;HPM_P2
2023/12/27 00:01:30;;;;;;;2.63;2.42;;;6.40;99.90;;;;;;5073504;28;20228;-58
2023/12/27 00:03:57;;;;;;;4.97;2.13;;;6.30;99.90;;;;;;5072965;28;20237;-59
2023/12/27 00:06:23;;;;;;;3.75;2.60;;;6.30;99.90;;;;;;5073187;28;20204;-59
2023/12/27 00:08:52;;;;;;;3.05;2.40;;;6.40;99.90;;;;;;5072444;28;20240;-57
2023/12/27 00:11:19;;;;;;;3.42;2.10;;;6.30;99.90;;;;;;5073063;28;20214;-59
2023/12/27 00:13:46;;;;;;;2.28;2.17;;;6.30;99.90;;;;;;5072932;28;20198;-58
2023/12/27 00:16:13;;;;;;;4.25;3.88;;;6.30;99.90;;;;;;5072796;28;20198;-59
2023/12/27 00:18:40;;;;;;;6.85;2.50;;;6.30;99.90;;;;;;5103503;22;20233;-62
2023/12/27 00:21:06;;;;;;;6.00;2.50;;;6.30;99.90;;;;;;5092720;28;20212;-62
2023/12/27 00:23:33;;;;;;;4.50;2.03;;;6.30;99.90;;;;;;5092761;28;20196;-64
2023/12/27 00:26:01;;;;;;;5.47;3.00;;;6.30;99.90;;;;;;5092595;28;20200;-65
2023/12/27 00:28:28;;;;;;;4.65;2.67;;;6.30;99.90;;;;;;5092531;28;20225;-64
2023/12/27 00:30:55;;;;;;;2.65;2.40;;;6.20;99.90;;;;;;5093015;28;20287;-62
2023/12/27 00:33:22;;;;;;;2.60;2.10;;;6.20;99.90;;;;;;5093130;28;20204;-64
2023/12/27 00:35:49;;;;;;;5.78;2.33;;;6.20;99.90;;;;;;5092280;28;20201;-61
2023/12/27 00:38:15;;;;;;;5.75;2.83;;;6.20;99.90;;;;;;5092420;28;20229;-65
2023/12/27 00:40:42;;;;;;;2.85;1.80;;;6.20;99.90;;;;;;5092579;28;20205;-61
2023/12/27 00:43:11;;;;;;;2.58;2.25;;;6.20;99.90;;;;;;5093104;28;20286;-61
2023/12/27 00:45:38;;;;;;;4.32;2.35;;;6.20;99.90;;;;;;5092338;28;20367;-63
2023/12/27 00:48:05;;;;;;;2.70;2.50;;;6.20;99.90;;;;;;5092415;28;20217;-62
2023/12/27 00:50:32;;;;;;;3.90;2.47;;;6.20;99.90;;;;;;5092278;28;20288;-64
2023/12/27 00:52:59;;;;;;;5.10;2.70;;;6.20;99.90;;;;;;5092232;28;20245;-64
2023/12/27 00:55:25;;;;;;;6.63;3.45;;;6.20;99.90;;;;;;5091768;28;20219;-64
2023/12/27 00:57:52;;;;;;;3.50;2.33;;;6.20;99.90;;;;;;5092359;28;20225;-63
2023/12/27 01:00:21;;;;;;;2.58;2.38;;;6.20;99.90;;;;;;5092233;28;20289;-64
2023/12/27 01:02:47;;;;;;;2.47;2.28;;;6.30;99.90;;;;;;5092046;28;20205;-64
2023/12/27 01:05:14;;;;;;;3.10;2.80;;;6.20;99.90;;;;;;5092144;28;20205;-65
2023/12/27 01:07:41;;;;;;;6.55;3.22;;;6.30;99.90;;;;;;5091929;28;20212;-64
2023/12/27 01:10:09;;;;;;;5.45;3.15;;;6.30;99.90;;;;;;5092048;28;20622;-64
2023/12/27 01:12:35;;;;;;;5.13;4.07;;;6.30;99.90;;;;;;5092095;28;20282;-64
2023/12/27 01:15:02;;;;;;;5.90;3.53;;;6.30;99.90;;;;;;5091980;28;20205;-63
2023/12/27 01:17:30;;;;;;;6.38;4.00;;;6.30;99.90;;;;;;5091993;28;20259;-63
2023/12/27 01:19:57;;;;;;;5.97;4.90;;;6.30;99.90;;;;;;5092042;28;20285;-63
2023/12/27 01:22:24;;;;;;;7.38;4.28;;;6.20;99.90;;;;;;5091552;28;20209;-63
2023/12/27 01:24:51;;;;;;;3.50;3.00;;;6.30;99.90;;;;;;5091861;28;20200;-63
2023/12/27 01:27:18;;;;;;;4.13;3.38;;;6.30;99.90;;;;;;5091481;28;20208;-64
2023/12/27 01:29:44;;;;;;;3.17;2.92;;;6.20;99.90;;;;;;5090634;28;20235;-63
2023/12/27 01:32:11;;;;;;;3.72;3.42;;;6.20;99.90;;;;;;5091737;28;20197;-63
2023/12/27 01:34:39;;;;;;;3.47;3.15;;;6.20;99.90;;;;;;5091744;28;20315;-64
2023/12/27 01:37:06;;;;;;;4.60;2.85;;;6.20;99.90;;;;;;5090858;28;20776;-64
2023/12/27 01:39:34;;;;;;;5.70;3.50;;;6.10;99.90;;;;;;5091367;28;20233;-63
2023/12/27 01:42:00;;;;;;;3.72;3.42;;;6.10;99.90;;;;;;5091430;28;20209;-63
2023/12/27 01:44:27;;;;;;;3.80;2.83;;;6.10;99.90;;;;;;5091916;28;20201;-63
2023/12/27 01:46:55;;;;;;;3.65;2.70;;;6.10;99.90;;;;;;5091572;28;20201;-63
2023/12/27 01:49:21;;;;;;;4.68;2.70;;;6.10;99.90;;;;;;5091512;28;20336;-62
2023/12/27 01:51:50;;;;;;;4.25;3.10;;;6.10;99.90;;;;;;5091888;28;20201;-63
2023/12/27 01:54:17;;;;;;;6.80;2.90;;;6.10;99.90;;;;;;5091476;28;20732;-62
2023/12/27 01:56:45;;;;;;;4.30;2.00;;;6.10;99.90;;;;;;5091444;28;20211;-63
2023/12/27 01:59:12;;;;;;;4.90;2.38;;;6.10;99.90;;;;;;5083302;28;20245;-63
2023/12/27 02:01:39;;;;;;;3.47;2.33;;;6.10;99.90;;;;;;5091600;28;20212;-63
2023/12/27 02:04:06;;;;;;;4.10;2.72;;;6.10;99.90;;;;;;5091429;28;20729;-63
2023/12/27 02:06:34;;;;;;;2.25;2.03;;;6.10;99.90;;;;;;5091290;28;20197;-63
2023/12/27 02:09:03;;;;;;;3.80;3.00;;;6.00;99.90;;;;;;5090960;28;20252;-63
2023/12/27 02:11:30;;;;;;;3.17;1.98;;;6.00;99.90;;;;;;5091356;28;20208;-63
2023/12/27 02:13:57;;;;;;;2.88;2.50;;;6.00;99.90;;;;;;5090738;28;20209;-63
2023/12/27 02:16:23;;;;;;;2.40;2.00;;;5.90;99.90;;;;;;5091079;28;20292;-63
2023/12/27 02:18:50;;;;;;;3.17;2.30;;;5.90;99.90;;;;;;5090893;28;20220;-63
2023/12/27 02:21:18;;;;;;;5.10;2.35;;;5.90;99.90;;;;;;5091293;28;20201;-63
2023/12/27 02:23:49;;;;;;;2.78;2.67;;;5.90;99.90;;;;;;5091166;28;20659;-61
2023/12/27 02:26:17;;;;;;;3.38;1.95;;;5.90;99.90;;;;;;5091288;28;20228;-63
2023/12/27 02:28:44;;;;;;;2.50;2.30;;;5.90;99.90;;;;;;5090599;28;20225;-63
2023/12/27 02:31:11;;;;;;;1.77;1.52;;;5.90;99.90;;;;;;5090003;28;20291;-63
2023/12/27 02:33:43;;;;;;;2.03;1.83;;;5.80;99.90;;;;;;5091452;28;20215;-63
2023/12/27 02:36:10;;;;;;;5.25;2.90;;;5.90;99.90;;;;;;5091578;28;20208;-62
2023/12/27 02:38:36;;;;;;;3.63;1.85;;;5.80;99.90;;;;;;5090983;28;20239;-62
2023/12/27 02:41:04;;;;;;;1.98;1.75;;;5.80;99.90;;;;;;5091270;28;20292;-63
2023/12/27 02:43:32;;;;;;;2.88;2.50;;;5.80;99.90;;;;;;5090793;28;20633;-62
2023/12/27 02:45:59;;;;;;;4.20;2.17;;;5.80;99.90;;;;;;5091623;28;20308;-63
2023/12/27 02:48:26;;;;;;;2.80;2.50;;;5.80;99.90;;;;;;5091207;28;20228;-62
2023/12/27 02:50:53;;;;;;;1.98;1.88;;;5.80;99.90;;;;;;5091275;28;20295;-62
2023/12/27 02:53:19;;;;;;;2.88;2.58;;;5.70;99.90;;;;;;5091688;28;20204;-61
2023/12/27 02:55:46;;;;;;;2.63;2.42;;;5.70;99.90;;;;;;5091574;28;20237;-61
2023/12/27 02:58:14;;;;;;;2.60;1.95;;;5.70;99.90;;;;;;5091165;28;20235;-62
2023/12/27 03:00:42;;;;;;;2.35;2.10;;;5.70;99.90;;;;;;5091678;28;20257;-61
2023/12/27 03:03:10;;;;;;;3.33;2.20;;;5.70;99.90;;;;;;5089532;28;20199;-63
2023/12/27 03:05:36;;;;;;;2.80;2.60;;;5.70;99.90;;;;;;5091214;28;20616;-63
2023/12/27 03:08:03;;;;;;;6.03;2.17;;;5.70;99.90;;;;;;5091343;28;20304;-62
2023/12/27 03:10:30;;;;;;;6.57;2.95;;;5.70;99.90;;;;;;5090785;28;20477;-63
2023/12/27 03:12:57;;;;;;;2.45;2.25;;;5.70;99.90;;;;;;5091490;28;20293;-62
2023/12/27 03:15:24;;;;;;;3.25;2.35;;;5.70;99.90;;;;;;5091487;28;20205;-63
2023/12/27 03:17:52;;;;;;;2.35;2.13;;;5.70;99.90;;;;;;5090674;28;20324;-63
2023/12/27 03:20:19;;;;;;;4.35;2.55;;;5.70;99.90;;;;;;5089256;28;20300;-64
2023/12/27 03:22:45;;;;;;;6.65;3.00;;;5.70;99.90;;;;;;5089529;28;20216;-64
2023/12/27 03:25:12;;;;;;;2.63;2.00;;;5.70;99.90;;;;;;5090893;28;20779;-63
2023/12/27 03:27:39;;;;;;;3.53;3.33;;;5.70;99.90;;;;;;5093938;28;20215;-63
2023/12/27 03:30:07;;;;;;;2.65;2.45;;;5.70;99.90;;;;;;5094878;28;20209;-63
2023/12/27 03:32:34;;;;;;;5.38;2.67;;;5.70;99.90;;;;;;5095169;28;20201;-63
2023/12/27 03:35:02;;;;;;;1.95;1.85;;;5.70;99.90;;;;;;5094957;28;20255;-63
2023/12/27 03:37:29;;;;;;;5.15;2.60;;;5.70;99.90;;;;;;5094440;28;20233;-63
2023/12/27 03:39:56;;;;;;;2.08;1.98;;;5.70;99.90;;;;;;5094674;28;20304;-63
2023/12/27 03:42:23;;;;;;;2.60;2.13;;;5.80;99.90;;;;;;5094974;28;20296;-62
2023/12/27 03:44:52;;;;;;;2.80;2.60;;;5.80;99.90;;;;;;5094643;28;20211;-63
2023/12/27 03:47:19;;;;;;;2.40;1.95;;;5.80;99.90;;;;;;5094782;28;20212;-63
2023/12/27 03:49:46;;;;;;;2.55;2.35;;;5.80;99.90;;;;;;5094091;28;20718;-63
2023/12/27 03:52:14;;;;;;;2.88;2.53;;;5.80;99.90;;;;;;5094348;28;20687;-63
2023/12/27 03:54:41;;;;;;;3.95;3.55;;;5.80;99.90;;;;;;5094601;28;20209;-62
2023/12/27 03:57:08;;;;;;;3.47;2.20;;;5.80;99.90;;;;;;5094336;28;20220;-63
2023/12/27 03:59:38;;;;;;;2.33;2.20;;;5.80;99.90;;;;;;5094154;28;20731;-62
2023/12/27 04:02:05;;;;;;;3.25;2.30;;;5.80;99.90;;;;;;5094366;28;20558;-63
2023/12/27 04:04:33;;;;;;;6.82;2.25;;;5.80;99.90;;;;;;5094334;28;20201;-63
2023/12/27 04:07:00;;;;;;;2.67;2.47;;;5.80;99.90;;;;;;5093934;28;20214;-63
2023/12/27 04:09:28;;;;;;;2.65;2.50;;;5.80;99.90;;;;;;5093918;28;20316;-63
2023/12/27 04:11:55;;;;;;;5.50;2.22;;;5.80;99.90;;;;;;5094340;28;20686;-63
2023/12/27 04:14:22;;;;;;;2.67;2.28;;;5.80;99.90;;;;;;5094204;28;20209;-63
2023/12/27 04:16:49;;;;;;;2.78;2.55;;;5.80;99.90;;;;;;5094122;28;20209;-63
2023/12/27 04:19:15;;;;;;;4.30;3.10;;;5.80;99.90;;;;;;5093662;28;20224;-63
2023/12/27 04:21:42;;;;;;;2.22;2.10;;;5.70;99.90;;;;;;5094031;28;20754;-63
2023/12/27 04:24:09;;;;;;;4.13;2.30;;;5.70;99.90;;;;;;5094362;28;20205;-63
2023/12/27 04:26:39;;;;;;;4.32;2.50;;;5.70;99.90;;;;;;5094058;28;20209;-63
2023/12/27 04:29:07;;;;;;;4.18;2.78;;;5.70;99.90;;;;;;5093658;28;20231;-63
2023/12/27 04:31:34;;;;;;;6.30;2.90;;;5.70;99.90;;;;;;5093820;28;20241;-63
2023/12/27 04:34:01;;;;;;;2.95;2.65;;;5.70;99.90;;;;;;5092603;28;20574;-62
2023/12/27 04:36:28;;;;;;;5.85;2.47;;;5.70;99.90;;;;;;5093841;28;20299;-62
2023/12/27 04:38:54;;;;;;;4.20;3.28;;;5.70;99.90;;;;;;5092839;28;20316;-62
2023/12/27 04:41:21;;;;;;;2.40;2.30;;;5.70;99.90;;;;;;5093947;28;20205;-63
2023/12/27 04:43:49;;;;;;;4.43;2.30;;;5.70;99.90;;;;;;5093807;28;20253;-63
2023/12/27 04:46:16;;;;;;;2.47;2.28;;;5.70;99.90;;;;;;5093631;28;20205;-63
2023/12/27 04:48:43;;;;;;;2.95;2.45;;;5.70;99.90;;;;;;5093305;28;20236;-62
2023/12/27 04:51:10;;;;;;;3.38;2.50;;;5.70;99.90;;;;;;5093522;28;20300;-62
2023/12/27 04:53:37;;;;;;;2.38;2.17;;;5.80;99.90;;;;;;5093464;28;20209;-62
2023/12/27 04:56:04;;;;;;;2.83;2.58;;;5.70;99.90;;;;;;5093636;28;20300;-63
2023/12/27 04:58:35;;;;;;;3.03;2.30;;;5.80;99.90;;;;;;5093131;28;20233;-63
2023/12/27 05:01:04;;;;;;;1.95;1.85;;;5.80;99.90;;;;;;5093542;28;20205;-62
2023/12/27 05:03:31;;;;;;;2.70;2.50;;;5.80;99.90;;;;;;5092979;28;20208;-63
2023/12/27 05:05:57;;;;;;;4.35;2.10;;;5.80;99.90;;;;;;5093149;28;20215;-63
2023/12/27 05:08:24;;;;;;;4.72;2.13;;;5.80;99.90;;;;;;5092935;28;20217;-61
2023/12/27 05:10:51;;;;;;;4.63;2.40;;;5.80;99.90;;;;;;5093360;28;20205;-62
2023/12/27 05:13:18;;;;;;;2.47;2.28;;;5.80;99.90;;;;;;5093135;28;20205;-63
2023/12/27 05:15:46;;;;;;;4.35;2.20;;;5.80;99.90;;;;;;5093163;28;20292;-63
2023/12/27 05:18:15;;;;;;;3.00;2.22;;;5.80;99.90;;;;;;5092702;28;20234;-63
2023/12/27 05:20:41;;;;;;;4.82;3.63;;;5.80;99.90;;;;;;5093210;28;20204;-63
2023/12/27 05:23:08;;;;;;;2.85;2.63;;;5.90;99.90;;;;;;5093165;28;20288;-63
2023/12/27 05:25:36;;;;;;;2.42;2.25;;;5.90;99.90;;;;;;5093018;28;20312;-63
2023/12/27 05:28:03;;;;;;;2.75;2.38;;;5.90;99.90;;;;;;5092681;28;20785;-62
2023/12/27 05:30:31;;;;;;;2.65;2.47;;;5.90;99.90;;;;;;5092660;28;20208;-62
2023/12/27 05:32:58;;;;;;;3.35;2.40;;;5.90;99.90;;;;;;5092640;28;20209;-61
2023/12/27 05:35:26;;;;;;;3.00;2.28;;;5.90;99.90;;;;;;5091513;28;20594;-63
2023/12/27 05:37:53;;;;;;;3.80;3.00;;;6.00;99.90;;;;;;5092401;28;20677;-63
2023/12/27 05:40:20;;;;;;;3.50;3.20;;;6.00;99.90;;;;;;5092338;28;20288;-63
2023/12/27 05:42:47;;;;;;;2.50;2.22;;;6.00;99.90;;;;;;5092798;28;20631;-64
2023/12/27 05:45:14;;;;;;;3.90;2.42;;;6.00;99.90;;;;;;5092748;28;20201;-64
2023/12/27 05:47:41;;;;;;;4.30;3.13;;;6.00;99.90;;;;;;5092243;28;20217;-63
2023/12/27 05:50:09;;;;;;;4.50;2.53;;;6.10;99.90;;;;;;5091443;28;20239;-63
2023/12/27 05:52:38;;;;;;;2.90;2.70;;;6.10;99.90;;;;;;5092438;28;20220;-63
2023/12/27 05:55:06;;;;;;;2.42;2.22;;;6.10;99.90;;;;;;5092352;28;20209;-64
2023/12/27 05:57:33;;;;;;;3.90;3.05;;;6.20;99.90;;;;;;5092173;28;20250;-63
2023/12/27 06:00:00;;;;;;;4.22;2.88;;;6.20;99.90;;;;;;5092006;28;20225;-63
2023/12/27 06:02:27;;;;;;;3.97;3.55;;;6.30;99.90;;;;;;5092461;28;20216;-63
2023/12/27 06:04:55;;;;;;;3.42;2.90;;;6.30;99.90;;;;;;5092420;28;20219;-63
2023/12/27 06:07:22;;;;;;;2.90;2.60;;;6.30;99.90;;;;;;5092092;28;20710;-63
2023/12/27 06:09:50;;;;;;;2.83;2.20;;;6.30;99.90;;;;;;5092003;28;20308;-63
2023/12/27 06:12:17;;;;;;;5.80;4.78;;;6.30;99.90;;;;;;5092125;28;20205;-63
2023/12/27 06:14:44;;;;;;;5.20;3.67;;;6.40;99.90;;;;;;5091871;28;20231;-63
2023/12/27 06:17:11;;;;;;;2.78;2.50;;;6.40;99.90;;;;;;5091997;28;20207;-63
2023/12/27 06:19:38;;;;;;;5.72;3.75;;;6.40;99.90;;;;;;5099764;22;20320;-63
2023/12/27 06:22:04;;;;;;;5.45;3.53;;;6.40;99.90;;;;;;5071449;28;20202;-62
2023/12/27 06:24:32;;;;;;;4.75;2.85;;;6.40;99.90;;;;;;5071682;28;20216;-63
2023/12/27 06:27:00;;;;;;;3.53;2.47;;;6.40;99.90;;;;;;5071613;28;20232;-62
2023/12/27 06:29:26;;;;;;;5.47;2.70;;;6.40;99.90;;;;;;5071395;28;20781;-63
2023/12/27 06:31:53;;;;;;;3.38;2.72;;;6.40;99.90;;;;;;5071701;28;20209;-62
2023/12/27 06:34:20;;;;;;;3.20;2.90;;;6.40;99.90;;;;;;5071536;28;20209;-61
2023/12/27 06:36:48;;;;;;;3.42;3.13;;;6.40;99.90;;;;;;5071408;28;20301;-62
2023/12/27 06:39:15;;;;;;;4.60;2.25;;;6.40;99.90;;;;;;5071181;28;20225;-62
2023/12/27 06:41:42;;;;;;;3.60;3.25;;;6.40;99.90;;;;;;5071724;28;20219;-62
2023/12/27 06:44:10;;;;;;;2.92;2.72;;;6.30;99.90;;;;;;5071621;28;20231;-62
2023/12/27 06:46:37;;;;;;;3.15;2.55;;;6.30;99.90;;;;;;5071337;28;20209;-63
2023/12/27 06:49:04;;;;;;;3.42;2.42;;;6.30;99.90;;;;;;5071098;28;20228;-63
2023/12/27 06:51:31;;;;;;;2.88;2.55;;;6.20;99.90;;;;;;5071365;28;20597;-62
2023/12/27 06:53:58;;;;;;;2.92;2.72;;;6.20;99.90;;;;;;5071356;28;20275;-62
2023/12/27 06:56:25;;;;;;;3.65;3.35;;;6.20;99.90;;;;;;5071332;28;20217;-62
2023/12/27 06:58:52;;;;;;;3.65;3.10;;;6.20;99.90;;;;;;5071103;28;20240;-62
2023/12/27 07:01:20;;;;;;;5.95;4.22;;;6.20;99.90;;;;;;5073702;28;20896;-62
2023/12/27 07:03:46;;;;;;;2.72;2.53;;;6.20;99.90;;;;;;5075405;28;20671;-62
2023/12/27 07:06:13;;;;;;;3.95;3.40;;;6.20;99.90;;;;;;5075310;28;20301;-62
2023/12/27 07:08:40;;;;;;;4.05;3.08;;;6.20;99.90;;;;;;5075223;28;20244;-62
2023/12/27 07:11:07;;;;;;;4.72;3.30;;;6.20;99.90;;;;;;5075218;28;20296;-62
2023/12/27 07:13:34;;;;;;;3.15;2.95;;;6.20;99.90;;;;;;5075215;28;20292;-63
2023/12/27 07:16:00;;;;;;;3.35;3.13;;;6.20;99.90;;;;;;5074945;28;20206;-63
2023/12/27 07:18:29;;;;;;;5.10;4.60;;;6.20;99.90;;;;;;5074546;28;20233;-63
2023/12/27 07:20:55;;;;;;;8.50;4.80;;;6.20;99.90;;;;;;5075254;28;20309;-62
2023/12/27 07:23:22;;;;;;;6.15;4.50;;;6.30;99.90;;;;;;5074745;28;20301;-62
2023/12/27 07:25:49;;;;;;;5.10;4.60;;;6.30;99.90;;;;;;5075107;28;20292;-62
2023/12/27 07:28:16;;;;;;;3.70;3.40;;;6.30;99.90;;;;;;5074686;28;20337;-63
2023/12/27 07:30:43;;;;;;;3.70;3.33;;;6.30;99.90;;;;;;5074918;28;20208;-62
2023/12/27 07:33:09;;;;;;;4.88;3.80;;;6.30;99.90;;;;;;5074732;28;20301;-62
2023/12/27 07:35:38;;;;;;;5.25;3.55;;;6.40;99.90;;;;;;5074952;28;20227;-62
2023/12/27 07:38:04;;;;;;;7.15;6.07;;;6.40;99.90;;;;;;5074774;28;20592;-62
2023/12/27 07:40:31;;;;;;;5.00;4.60;;;6.40;99.90;;;;;;5074580;28;20239;-62
2023/12/27 07:42:58;;;;;;;5.95;4.75;;;6.40;99.90;;;;;;5074633;28;20739;-62
2023/12/27 07:45:25;;;;;;;6.93;4.80;;;6.50;99.90;;;;;;5072448;28;20712;-63
2023/12/27 07:47:52;;;;;;;6.55;4.55;;;6.50;99.90;;;;;;5073896;28;20210;-62
2023/12/27 07:50:18;;;;;;;6.07;3.90;;;6.60;99.90;;;;;;5074068;28;20314;-62
2023/12/27 07:52:47;;;;;;;4.20;3.80;;;6.60;99.90;;;;;;5074128;28;20201;-63
2023/12/27 07:55:14;;;;;;;4.28;4.00;;;6.60;99.90;;;;;;5074314;28;20220;-62
2023/12/27 07:57:41;;;;;;;7.00;5.22;;;6.60;99.90;;;;;;5074153;28;20214;-63
2023/12/27 08:00:09;;;;;;;5.97;5.57;;;6.70;99.90;;;;;;5073308;28;20300;-62
2023/12/27 08:02:37;;;;;;;9.50;6.80;;;6.70;99.90;;;;;;5074378;28;20276;-62
2023/12/27 08:05:04;;;;;;;7.28;6.57;;;6.70;99.90;;;;;;5074129;28;20205;-62
2023/12/27 08:07:31;;;;;;;7.05;6.45;;;6.80;99.90;;;;;;5074217;28;20212;-63
2023/12/27 08:10:00;;;;;;;5.75;5.20;;;6.80;99.90;;;;;;5073822;28;20240;-63
2023/12/27 08:12:26;;;;;;;6.13;5.72;;;6.90;99.90;;;;;;5072977;28;20202;-63
2023/12/27 08:14:53;;;;;;;9.00;6.30;;;6.90;99.90;;;;;;5073724;28;20308;-62
2023/12/27 08:17:20;;;;;;;7.45;6.85;;;7.00;99.90;;;;;;5073835;28;20206;-62
2023/12/27 08:19:47;;;;;;;7.93;7.20;;;7.00;99.90;;;;;;5073473;28;20233;-63
2023/12/27 08:22:14;;;;;;;8.38;5.63;;;7.00;99.90;;;;;;5073788;28;20718;-63
2023/12/27 08:24:41;;;;;;;6.78;6.15;;;7.10;99.90;;;;;;5073865;28;20289;-63
2023/12/27 08:27:09;;;;;;;8.15;7.35;;;7.10;99.90;;;;;;5073551;28;20343;-63
2023/12/27 08:29:36;;;;;;;5.20;4.75;;;7.20;99.90;;;;;;5073616;28;20221;-62
2023/12/27 08:32:03;;;;;;;6.97;5.68;;;7.20;99.90;;;;;;5073672;28;20206;-62
2023/12/27 08:34:30;;;;;;;6.50;5.93;;;7.20;99.90;;;;;;5073751;28;20241;-63
2023/12/27 08:36:57;;;;;;;6.65;6.15;;;7.20;99.90;;;;;;5072796;28;20197;-63
2023/12/27 08:39:24;;;;;;;7.30;6.60;;;7.30;99.90;;;;;;5073032;28;20229;-63
2023/12/27 08:41:51;;;;;;;8.02;6.72;;;7.30;99.90;;;;;;5073217;28;20295;-63
2023/12/27 08:44:20;;;;;;;7.28;6.47;;;7.40;99.90;;;;;;5073240;28;20216;-63
2023/12/27 08:46:46;;;;;;;8.55;7.78;;;7.40;99.90;;;;;;5073427;28;20217;-63
2023/12/27 08:49:13;;;;;;;8.73;7.95;;;7.50;99.90;;;;;;5073152;28;20225;-62
2023/12/27 08:51:40;;;;;;;9.30;8.45;;;7.60;99.90;;;;;;5070960;28;20732;-62
2023/12/27 08:54:07;;;;;;;15.50;10.48;;;7.60;99.90;;;;;;5072330;28;20198;-62
2023/12/27 08:56:34;;;;;;;9.40;8.45;;;7.70;99.90;;;;;;5072639;28;20214;-63
2023/12/27 08:59:01;;;;;;;14.85;10.65;;;7.80;99.90;;;;;;5072387;28;20221;-63
2023/12/27 09:01:31;;;;;;;18.15;11.55;;;7.80;99.90;;;;;;5072913;28;20206;-63
2023/12/27 09:03:58;;;;;;;13.85;11.90;;;7.90;99.90;;;;;;5072825;28;20664;-63
2023/12/27 09:06:25;;;;;;;15.45;13.95;;;8.00;99.90;;;;;;5072677;28;20205;-62
2023/12/27 09:08:52;;;;;;;15.40;11.55;;;8.00;99.90;;;;;;5071999;28;20218;-63
2023/12/27 09:11:19;;;;;;;20.08;13.82;;;8.10;99.90;;;;;;5072552;28;20209;-63
2023/12/27 09:13:46;;;;;;;17.85;12.07;;;8.20;99.90;;;;;;5067715;28;20255;-63
2023/12/27 09:16:13;;;;;;;19.58;12.85;;;8.30;99.90;;;;;;5072339;28;20304;-63
2023/12/27 09:18:41;;;;;;;18.23;12.48;;;8.40;99.90;;;;;;5072109;28;20608;-62
2023/12/27 09:21:08;;;;;;;12.90;11.57;;;8.40;99.90;;;;;;5072069;28;20232;-63
2023/12/27 09:23:34;;;;;;;15.10;11.20;;;8.50;99.90;;;;;;5067942;28;20197;-62
2023/12/27 09:26:01;;;;;;;17.33;12.93;;;8.60;99.90;;;;;;5072056;28;20441;-62
2023/12/27 09:28:29;;;;;;;16.13;13.20;;;8.70;99.90;;;;;;5066404;28;20229;-63
2023/12/27 09:30:56;;;;;;;19.20;12.00;;;8.80;99.90;;;;;;5071980;28;20450;-63
2023/12/27 09:33:23;;;;;;;14.03;12.63;;;8.80;99.90;;;;;;5072193;28;20213;-62
2023/12/27 09:35:51;;;;;;;13.45;12.02;;;8.90;99.90;;;;;;5071928;28;20527;-63
2023/12/27 09:38:18;;;;;;;16.67;11.10;;;8.90;99.90;;;;;;5058758;28;20256;-63
2023/12/27 09:40:45;;;;;;;14.53;10.27;;;8.90;99.90;;;;;;5072098;28;20484;-63
2023/12/27 09:43:13;;;;;;;12.67;10.80;;;9.00;99.90;;;;;;5072129;28;20452;-63
2023/12/27 09:45:42;;;;;;;14.10;10.60;;;9.00;99.90;;;;;;5071853;28;20527;-63
2023/12/27 09:48:12;;;;;;;10.90;9.70;;;9.00;99.90;;;;;;5071660;28;20526;-63
2023/12/27 09:50:40;;;;;;;10.77;9.67;;;9.10;99.90;;;;;;5071182;28;20446;-63
2023/12/27 09:53:10;;;;;;;10.80;9.70;;;9.10;99.90;;;;;;5069267;28;20448;-63
2023/12/27 09:55:37;;;;;;;10.23;9.23;;;9.20;99.90;;;;;;5071080;28;20464;-63
2023/12/27 09:58:05;;;;;;;12.20;9.53;;;9.20;99.90;;;;;;5071200;28;20458;-62
2023/12/27 10:00:34;;;;;;;12.27;9.37;;;9.30;99.90;;;;;;5069735;28;20541;-62
2023/12/27 10:03:05;;;;;;;13.10;11.70;;;9.20;99.90;;;;;;5070850;28;20460;-63
2023/12/27 10:05:42;;;;;;;11.60;10.40;;;9.20;99.90;;;;;;5071360;28;20444;-64
2023/12/27 10:08:11;;;;;;;11.93;10.43;;;9.30;99.90;;;;;;5071072;28;20443;-63
2023/12/27 10:10:39;;;;;;;11.37;9.33;;;9.40;99.90;;;;;;5071057;28;20448;-63
2023/12/27 10:13:09;;;;;;;12.90;9.27;;;9.40;99.90;;;;;;5071259;28;20451;-63
2023/12/27 10:15:35;;;;;;;10.70;9.07;;;9.50;99.90;;;;;;5070915;28;20500;-64
2023/12/27 10:18:03;;;;;;;11.60;9.80;;;9.50;99.90;;;;;;5070603;28;20444;-63
2023/12/27 10:20:36;;;;;;;9.87;8.40;;;9.60;99.90;;;;;;5069350;28;20491;-64
2023/12/27 10:23:03;;;;;;;8.37;7.67;;;9.60;99.90;;;;;;5069690;28;20448;-63
2023/12/27 10:25:32;;;;;;;8.40;7.60;;;9.70;99.90;;;;;;5070554;28;20901;-64
2023/12/27 10:28:00;;;;;;;8.23;7.50;;;9.70;99.90;;;;;;5067034;28;20460;-63
2023/12/27 10:30:26;;;;;;;9.53;8.07;;;9.80;99.90;;;;;;5066174;28;20444;-62
2023/12/27 10:33:00;;;;;;;9.03;8.13;;;9.80;99.90;;;;;;5070605;28;20890;-64
2023/12/27 10:35:28;;;;;;;7.87;7.17;;;9.80;99.90;;;;;;5070136;28;20528;-63
2023/12/27 10:38:01;;;;;;;9.40;8.10;;;9.90;99.90;;;;;;5070288;28;20448;-63
2023/12/27 10:40:29;;;;;;;8.13;7.40;;;9.90;99.90;;;;;;5069690;28;20515;-62
2023/12/27 10:42:57;;;;;;;9.57;7.67;;;10.00;99.90;;;;;;5070330;28;20934;-63
2023/12/27 10:45:25;;;;;;;7.93;7.13;;;10.10;99.90;;;;;;5070345;28;20960;-63
2023/12/27 10:47:58;;;;;;;7.77;6.83;;;10.10;99.90;;;;;;5070202;28;21285;-63
2023/12/27 10:50:27;;;;;;;7.97;7.07;;;10.20;99.90;;;;;;5061842;28;20440;-63
2023/12/27 10:53:02;;;;;;;7.50;6.80;;;10.20;99.90;;;;;;5068187;28;20830;-63
2023/12/27 10:55:30;;;;;;;8.13;7.33;;;10.20;99.90;;;;;;5069902;28;20443;-62
2023/12/27 10:58:00;;;;;;;6.97;6.37;;;10.20;99.90;;;;;;5070043;28;20574;-63
2023/12/27 11:00:28;;;;;;;6.80;6.20;;;10.20;99.90;;;;;;5069947;28;20471;-62
2023/12/27 11:02:55;;;;;;;7.90;7.10;;;10.20;99.90;;;;;;5070156;28;20451;-62
2023/12/27 11:05:24;;;;;;;7.27;6.57;;;10.20;99.90;;;;;;5070057;28;20444;-63
2023/12/27 11:07:53;;;;;;;6.50;6.00;;;10.20;99.90;;;;;;5069871;28;21399;-62
2023/12/27 11:10:21;;;;;;;8.80;7.90;;;10.20;99.90;;;;;;5068806;28;20827;-63
2023/12/27 11:12:48;;;;;;;6.77;6.17;;;10.30;99.90;;;;;;5070137;28;20451;-63
2023/12/27 11:15:18;;;;;;;7.17;6.47;;;10.30;99.90;;;;;;5069734;28;20456;-63
2023/12/27 11:17:46;;;;;;;9.20;6.13;;;10.30;99.90;;;;;;5070172;28;20531;-63
2023/12/27 11:20:14;;;;;;;6.70;6.00;;;10.30;99.90;;;;;;5068159;28;21021;-63
2023/12/27 11:22:44;;;;;;;6.67;5.93;;;10.30;99.90;;;;;;5069669;28;20943;-63
2023/12/27 11:25:12;;;;;;;6.83;6.13;;;10.30;99.90;;;;;;5069001;28;20880;-63
2023/12/27 11:27:40;;;;;;;7.43;6.17;;;10.40;99.90;;;;;;5069592;28;20456;-63
2023/12/27 11:30:11;;;;;;;6.43;5.90;;;10.40;99.90;;;;;;5067346;28;20837;-63
2023/12/27 11:32:42;;;;;;;6.30;5.63;;;10.50;99.90;;;;;;5069158;28;20813;-63
2023/12/27 11:35:10;;;;;;;6.37;5.80;;;10.50;99.90;;;;;;5067815;28;20444;-62
2023/12/27 11:37:41;;;;;;;7.67;7.00;;;10.50;99.90;;;;;;5063451;28;20455;-63
2023/12/27 11:40:10;;;;;;;13.20;7.00;;;10.50;99.90;;;;;;5064327;28;20507;-63
2023/12/27 11:42:38;;;;;;;7.93;5.40;;;10.50;99.90;;;;;;5065024;28;20456;-62
2023/12/27 11:45:06;;;;;;;7.40;6.10;;;10.60;99.90;;;;;;5067109;28;20448;-63
2023/12/27 11:47:32;;;;;;;5.97;5.47;;;10.60;99.90;;;;;;5070070;28;20454;-63
2023/12/27 11:50:21;;;;;;;6.50;5.90;;;10.60;99.90;;;;;;5073284;28;20823;-63
2023/12/27 11:52:51;;;;;;;6.37;5.77;;;10.60;99.90;;;;;;5072696;28;20454;-63
2023/12/27 11:55:20;;;;;;;7.20;6.60;;;10.60;99.90;;;;;;5073454;28;20973;-62
2023/12/27 11:57:56;;;;;;;6.70;6.00;;;10.60;99.90;;;;;;5072784;28;20447;-63
2023/12/27 12:00:25;;;;;;;7.13;5.60;;;10.60;99.90;;;;;;5073289;28;20570;-61
2023/12/27 12:02:59;;;;;;;6.70;6.10;;;10.60;99.90;;;;;;5072576;28;20451;-62
2023/12/27 12:05:48;;;;;;;7.00;6.37;;;10.60;99.90;;;;;;5072423;28;20452;-62
2023/12/27 12:08:25;;;;;;;6.90;6.30;;;10.60;99.90;;;;;;5072101;28;20999;-62
2023/12/27 12:11:06;;;;;;;7.53;5.53;;;10.60;99.90;;;;;;5072381;28;20987;-63
2023/12/27 12:13:34;;;;;;;6.07;5.57;;;10.60;99.90;;;;;;5067026;28;21039;-63
2023/12/27 12:16:01;;;;;;;7.13;6.53;;;10.60;99.90;;;;;;5072646;28;20535;-63
2023/12/27 12:18:29;;;;;;;5.27;4.77;;;10.60;99.90;;;;;;5071894;28;20480;-62
2023/12/27 12:20:58;;;;;;;6.73;6.13;;;10.70;99.90;;;;;;5081245;22;20591;-59
2023/12/27 12:23:25;;;;;;;7.73;6.40;;;10.70;99.90;;;;;;5071483;28;20443;-57
2023/12/27 12:25:52;;;;;;;5.43;4.90;;;10.80;99.90;;;;;;5067201;28;20450;-59
2023/12/27 12:28:19;;;;;;;5.87;5.20;;;10.80;99.90;;;;;;5062871;28;20591;-58
2023/12/27 12:30:47;;;;;;;5.13;4.63;;;10.90;99.90;;;;;;5071701;28;20460;-57
2023/12/27 12:33:14;;;;;;;5.00;4.30;;;11.00;99.90;;;;;;5072044;28;20456;-58
2023/12/27 12:35:40;;;;;;;5.67;5.17;;;11.00;99.90;;;;;;5071152;28;20447;-59
2023/12/27 12:38:09;;;;;;;4.33;4.00;;;11.00;99.90;;;;;;5070161;28;20444;-58
2023/12/27 12:40:37;;;;;;;4.33;3.00;;;11.00;99.90;;;;;;5071355;28;21084;-58
2023/12/27 12:43:04;;;;;;;4.93;4.43;;;11.10;99.90;;;;;;5071890;28;20443;-61
2023/12/27 12:45:32;;;;;;;4.70;4.30;;;11.10;99.90;;;;;;5070445;28;20501;-60
2023/12/27 12:47:59;;;;;;;6.37;4.23;;;11.10;99.90;;;;;;5071927;28;20941;-60
2023/12/27 12:50:26;;;;;;;3.90;3.50;;;11.10;99.90;;;;;;5070793;28;20468;-61
2023/12/27 12:52:53;;;;;;;7.23;4.37;;;11.10;99.90;;;;;;5071872;28;20830;-60
2023/12/27 12:55:28;;;;;;;5.30;4.80;;;11.10;99.90;;;;;;5072493;28;20886;-59